Terminal Aerodrome Forecast
Issued by NWS Rapid City, SD

Home | Current Version | Previous Version | Text Only | Print | Product List | Glossary Off
Versions: 1 2 3 4 5 6 7 8 9 10 11 12 13

048
FTUS43 KUNR 261733
TAFRAP
TAF
KRAP 261733Z 2618/2718 36006KT P6SM SCT040
      TEMPO 2619/2623 -TSRA BKN040CB
     FM270100 33008KT P6SM SCT070=

USA.gov is the U.S. government's official web portal to all federal, state and local government web resources and services.